Garwood, New Jersey
Current Conditions -  °F | °C
As of 8:35 PM on Saturday 25 Oct 2014 (Local Time) from KLDJ Reporting Station
Scattered Clouds Scattered Clouds  
Wind Chill: 67°   Ceiling: Unl
Heat Index: 67°   Visibility: 10mi
Dew Point: 46°   Wind: 0mph
Humidity: 47%   Direction: NA
Pressure: 29.65"   Gusts: NA
Location:  40.66°N, 74.32°W
Report Text: KLDJ 260035Z AUTO 00000KT 10SM SCT075 20/08 A2965 RMK AO2 T01950079
Loading
Personal Weather Stations






























Interactive Weather Map
Tropical Storm Tracking
New forecast layout! Learn more

10-Day Weather Forecast

Advertisements
Track Severe Weather on mobile